createdAt,value
2022-11-25T00:01:31.275Z,101358.84
2022-11-25T00:03:59.705Z,101355.38
2022-11-25T00:06:32.990Z,101357.97
2022-11-25T00:09:11.135Z,101351.09
2022-11-25T00:11:41.375Z,101352.84
2022-11-25T00:14:13.538Z,101352.88
2022-11-25T00:16:44.980Z,101354.66
2022-11-25T00:19:14.781Z,101362.47
2022-11-25T00:21:41.648Z,101363.28
2022-11-25T00:24:08.763Z,101357.97
2022-11-25T00:26:36.711Z,101364.06
2022-11-25T00:29:07.830Z,101364.03
2022-11-25T00:31:37.976Z,101355.38
2022-11-25T00:34:05.437Z,101356.13
2022-11-25T00:36:35.493Z,101356.19
2022-11-25T00:39:06.434Z,101362.19
2022-11-25T00:41:52.196Z,101357.00
2022-11-25T00:44:37.499Z,101353.53
2022-11-25T00:47:18.179Z,101356.13
2022-11-25T00:49:53.827Z,101346.63
2022-11-25T00:52:25.247Z,101352.72
2022-11-25T00:54:53.082Z,101350.13
2022-11-25T00:57:22.733Z,101350.06
2022-11-25T00:59:49.910Z,101354.34
2022-11-25T01:02:18.071Z,101353.47
2022-11-25T01:04:45.891Z,101352.63
2022-11-25T01:07:16.035Z,101351.72
2022-11-25T01:09:42.959Z,101354.31
2022-11-25T01:12:09.856Z,101356.03
2022-11-25T01:14:37.350Z,101356.03
2022-11-25T01:17:04.773Z,101355.97
2022-11-25T01:19:33.146Z,101348.97
2022-11-25T01:22:00.269Z,101350.75
2022-11-25T01:24:27.166Z,101347.25
2022-11-25T01:26:55.768Z,101348.88
2022-11-25T01:29:23.048Z,101350.53
2022-11-25T01:31:50.364Z,101335.59
2022-11-25T01:34:24.575Z,101346.09
2022-11-25T01:36:51.693Z,101346.97
2022-11-25T01:39:31.683Z,101350.47
2022-11-25T01:41:59.870Z,101340.91
2022-11-25T01:44:30.552Z,101352.16
2022-11-25T01:47:04.915Z,101349.47
2022-11-25T01:49:53.431Z,101345.06
2022-11-25T01:52:32.529Z,101334.59
2022-11-25T01:55:08.129Z,101341.53
2022-11-25T01:57:47.637Z,101342.34
2022-11-25T02:00:15.704Z,101341.41
2022-11-25T02:02:46.807Z,101346.66
2022-11-25T02:05:18.693Z,101338.88
2022-11-25T02:07:48.912Z,101335.41
2022-11-25T02:10:25.831Z,101339.75
2022-11-25T02:12:53.380Z,101326.78
2022-11-25T02:15:21.801Z,101330.34
2022-11-25T02:17:49.341Z,101334.59
2022-11-25T02:20:20.702Z,101326.81
2022-11-25T02:23:16.191Z,101333.81
2022-11-25T02:25:46.846Z,101331.22
2022-11-25T02:28:23.133Z,101327.75
2022-11-25T02:30:50.738Z,101334.72
2022-11-25T02:33:19.430Z,101334.78
2022-11-25T02:36:14.836Z,101336.47
2022-11-25T02:38:48.154Z,101330.41
2022-11-25T02:41:26.342Z,101331.22
2022-11-25T02:43:58.887Z,101338.13
2022-11-25T02:46:27.471Z,101332.94
2022-11-25T02:49:12.487Z,101344.13
2022-11-25T02:51:44.863Z,101342.38
2022-11-25T02:54:14.498Z,101340.66
2022-11-25T02:56:41.637Z,101343.22
2022-11-25T02:59:09.197Z,101341.34
2022-11-25T03:01:38.141Z,101345.75
2022-11-25T03:04:07.315Z,101339.56
2022-11-25T03:06:34.678Z,101337.81
2022-11-25T03:09:01.676Z,101343.91
2022-11-25T03:11:46.933Z,101343.88
2022-11-25T03:14:15.071Z,101348.19
2022-11-25T03:16:43.594Z,101352.44
2022-11-25T03:19:10.631Z,101353.34
2022-11-25T03:21:37.552Z,101355.94
2022-11-25T03:24:04.654Z,101358.53
2022-11-25T03:26:31.556Z,101364.59
2022-11-25T03:28:58.455Z,101365.47
2022-11-25T03:31:25.460Z,101360.28
2022-11-25T03:33:52.461Z,101348.03
2022-11-25T03:36:21.059Z,101356.78
2022-11-25T03:38:48.127Z,101352.44
2022-11-25T03:41:15.045Z,101348.09
2022-11-25T03:43:42.275Z,101348.91
2022-11-25T03:46:09.177Z,101344.53
2022-11-25T03:48:36.455Z,101341.03
2022-11-25T03:51:03.405Z,101339.25
2022-11-25T03:53:30.498Z,101346.06
2022-11-25T03:56:00.161Z,101345.13
2022-11-25T03:58:27.075Z,101349.38
2022-11-25T04:00:59.350Z,101344.13
2022-11-25T04:03:26.283Z,101346.63
2022-11-25T04:05:53.190Z,101344.03
2022-11-25T04:08:20.937Z,101351.00
2022-11-25T04:10:51.851Z,101347.47
2022-11-25T04:13:22.825Z,101346.59
2022-11-25T04:15:52.140Z,101345.75
2022-11-25T04:18:20.362Z,101344.03
2022-11-25T04:20:51.262Z,101344.88
2022-11-25T04:23:18.167Z,101347.47
2022-11-25T04:25:53.537Z,101349.19
2022-11-25T04:28:26.381Z,101347.53
2022-11-25T04:30:53.367Z,101353.59
2022-11-25T04:33:20.271Z,101356.25
2022-11-25T04:35:48.538Z,101351.00
2022-11-25T04:38:15.453Z,101354.59
2022-11-25T04:40:42.759Z,101364.19
2022-11-25T04:43:19.638Z,101353.72
2022-11-25T04:46:20.126Z,101367.66
2022-11-25T04:48:49.994Z,101377.19
2022-11-25T04:51:17.275Z,101378.06
2022-11-25T04:53:45.775Z,101378.97
2022-11-25T04:56:19.515Z,101380.59
2022-11-25T04:59:08.233Z,101376.38
2022-11-25T05:01:39.138Z,101379.84
2022-11-25T05:04:31.958Z,101384.16
2022-11-25T05:06:58.847Z,101387.63
2022-11-25T05:09:26.198Z,101385.97
2022-11-25T05:12:05.969Z,101378.03
2022-11-25T05:14:34.882Z,101390.22
2022-11-25T05:17:04.055Z,101402.31
2022-11-25T05:19:31.371Z,101404.97
2022-11-25T05:21:58.354Z,101405.78
2022-11-25T05:24:26.045Z,101418.69
2022-11-25T05:26:53.885Z,101416.06
2022-11-25T05:29:21.062Z,101415.09
2022-11-25T05:31:48.419Z,101407.28
2022-11-25T05:34:16.118Z,101396.63
2022-11-25T05:36:44.431Z,101399.22
2022-11-25T05:39:12.042Z,101410.50
2022-11-25T05:42:04.921Z,101415.63
2022-11-25T05:44:31.994Z,101417.28
2022-11-25T05:46:59.118Z,101412.00
2022-11-25T05:49:26.061Z,101412.00
2022-11-25T05:51:52.948Z,101404.09
2022-11-25T05:54:22.474Z,101407.56
2022-11-25T05:56:50.122Z,101406.63
2022-11-25T05:59:31.633Z,101410.91
2022-11-25T06:02:05.219Z,101396.78
2022-11-25T06:04:32.706Z,101401.91
2022-11-25T06:06:59.651Z,101411.66
2022-11-25T06:09:26.620Z,101422.84
2022-11-25T06:11:53.577Z,101416.78
2022-11-25T06:14:20.482Z,101422.84
2022-11-25T06:16:49.308Z,101421.97
2022-11-25T06:19:38.773Z,101426.25
2022-11-25T06:22:06.591Z,101421.06
2022-11-25T06:24:35.035Z,101416.72
2022-11-25T06:27:06.205Z,101424.44
2022-11-25T06:29:35.664Z,101426.16
2022-11-25T06:32:03.023Z,101429.53
2022-11-25T06:34:55.916Z,101434.78
2022-11-25T06:37:46.059Z,101437.31
2022-11-25T06:40:13.244Z,101435.59
2022-11-25T06:42:40.451Z,101434.72
2022-11-25T06:45:08.180Z,101431.19
2022-11-25T06:47:35.086Z,101444.22
2022-11-25T06:50:01.996Z,101448.63
2022-11-25T06:52:31.628Z,101446.88
2022-11-25T06:54:58.582Z,101448.75
2022-11-25T06:57:25.508Z,101439.25
2022-11-25T06:59:52.482Z,101444.50
2022-11-25T07:02:19.603Z,101435.00
2022-11-25T07:04:46.549Z,101434.03
2022-11-25T07:07:13.498Z,101441.06
2022-11-25T07:09:40.584Z,101441.97
2022-11-25T07:12:07.679Z,101437.59
2022-11-25T07:14:34.859Z,101451.50
2022-11-25T07:17:01.993Z,101447.16
2022-11-25T07:19:33.244Z,101445.44
2022-11-25T07:22:00.121Z,101448.91
2022-11-25T07:24:27.190Z,101445.38
2022-11-25T07:26:54.061Z,101455.03
2022-11-25T07:29:50.429Z,101435.94
2022-11-25T07:32:10.788Z,101444.59
2022-11-25T07:34:38.302Z,101448.91
2022-11-25T07:37:05.178Z,101471.38
2022-11-25T07:39:32.098Z,101467.94
2022-11-25T07:41:58.960Z,101469.72
2022-11-25T07:44:25.908Z,101468.06
2022-11-25T07:47:00.476Z,101466.34
2022-11-25T07:49:27.387Z,101460.34
2022-11-25T07:51:59.567Z,101474.22
2022-11-25T07:54:26.810Z,101482.19
2022-11-25T07:56:53.791Z,101476.22
2022-11-25T07:59:23.059Z,101470.16
2022-11-25T08:01:55.283Z,101478.06
2022-11-25T08:04:23.219Z,101482.47
2022-11-25T08:06:51.914Z,101476.44
2022-11-25T08:09:22.371Z,101488.59
2022-11-25T08:11:49.723Z,101479.16
2022-11-25T08:14:17.556Z,101488.72
2022-11-25T08:16:44.868Z,101488.00
2022-11-25T08:19:15.810Z,101482.88
2022-11-25T08:21:43.230Z,101485.53
2022-11-25T08:24:20.229Z,101486.53
2022-11-25T08:26:47.988Z,101483.13
2022-11-25T08:29:17.012Z,101483.19
2022-11-25T08:31:44.102Z,101477.22
2022-11-25T08:34:22.948Z,101479.00
2022-11-25T08:36:53.506Z,101476.41
2022-11-25T08:39:50.410Z,101479.06
2022-11-25T08:42:08.884Z,101482.53
2022-11-25T08:44:36.304Z,101486.88
2022-11-25T08:47:03.301Z,101490.25
2022-11-25T08:49:32.735Z,101486.78
2022-11-25T08:52:02.986Z,101475.53
2022-11-25T08:54:30.654Z,101479.94
2022-11-25T08:56:57.527Z,101482.53
2022-11-25T08:59:25.207Z,101482.59
2022-11-25T09:01:52.279Z,101489.53
2022-11-25T09:04:19.259Z,101492.06
2022-11-25T09:06:46.192Z,101482.53
2022-11-25T09:09:13.063Z,101487.78
2022-11-25T09:11:40.100Z,101497.31
2022-11-25T09:14:07.113Z,101492.06
2022-11-25T09:16:34.268Z,101496.38
2022-11-25T09:19:01.277Z,101494.66
2022-11-25T09:21:28.272Z,101489.50
2022-11-25T09:23:55.339Z,101493.91
2022-11-25T09:26:28.927Z,101498.22
2022-11-25T09:28:56.612Z,101506.00
2022-11-25T09:31:24.300Z,101494.78
2022-11-25T09:33:51.199Z,101501.69
2022-11-25T09:36:19.624Z,101488.59
2022-11-25T09:38:46.874Z,101506.88
2022-11-25T09:41:52.112Z,101502.56
2022-11-25T09:45:14.445Z,101497.44
2022-11-25T09:48:23.248Z,101501.75
2022-11-25T09:51:17.508Z,101493.19
2022-11-25T09:53:54.169Z,101492.31
2022-11-25T09:56:42.787Z,101492.44
2022-11-25T09:59:19.109Z,101486.44
2022-11-25T10:02:02.229Z,101496.09
2022-11-25T10:04:44.530Z,101500.53
2022-11-25T10:07:21.565Z,101498.00
2022-11-25T10:09:48.506Z,101502.41
2022-11-25T10:12:32.919Z,101507.72
2022-11-25T10:15:13.946Z,101501.78
2022-11-25T10:17:50.074Z,101501.03
2022-11-25T10:20:25.594Z,101499.31
2022-11-25T10:22:57.288Z,101495.91
2022-11-25T10:25:36.858Z,101500.28
2022-11-25T10:28:36.454Z,101513.34
2022-11-25T10:31:20.817Z,101505.53
2022-11-25T10:33:53.096Z,101512.53
2022-11-25T10:36:40.461Z,101511.59
2022-11-25T10:39:24.619Z,101508.19
2022-11-25T10:41:55.795Z,101509.97
2022-11-25T10:44:35.384Z,101511.72
2022-11-25T10:47:31.557Z,101508.25
2022-11-25T10:50:20.663Z,101522.03
2022-11-25T10:52:57.792Z,101514.22
2022-11-25T10:55:31.609Z,101514.22
2022-11-25T10:58:00.038Z,101509.00
2022-11-25T11:00:38.884Z,101513.41
2022-11-25T11:03:23.407Z,101506.47
2022-11-25T11:05:53.194Z,101504.91
2022-11-25T11:08:37.536Z,101504.16
2022-11-25T11:11:21.504Z,101498.16
2022-11-25T11:13:50.819Z,101499.94
2022-11-25T11:16:41.953Z,101494.75
2022-11-25T11:19:26.588Z,101486.09
2022-11-25T11:21:56.211Z,101486.16
2022-11-25T11:24:32.171Z,101493.19
2022-11-25T11:27:25.286Z,101481.13
2022-11-25T11:30:13.738Z,101481.25
2022-11-25T11:32:45.273Z,101483.91
2022-11-25T11:35:41.650Z,101482.31
2022-11-25T11:38:26.603Z,101486.88
2022-11-25T11:41:04.585Z,101492.16
2022-11-25T11:44:07.882Z,101490.47
2022-11-25T11:47:15.529Z,101490.63
2022-11-25T11:50:27.019Z,101479.41
2022-11-25T11:53:23.517Z,101475.25
2022-11-25T11:56:36.539Z,101471.78
2022-11-25T11:59:35.579Z,101477.94
2022-11-25T12:02:24.420Z,101480.59
2022-11-25T12:05:05.253Z,101483.25
2022-11-25T12:07:52.117Z,101476.41
2022-11-25T12:10:32.875Z,101478.22
2022-11-25T12:13:43.020Z,101479.16
2022-11-25T12:16:27.814Z,101480.03
2022-11-25T12:19:24.359Z,101480.06
2022-11-25T12:22:07.869Z,101478.31
2022-11-25T12:24:49.954Z,101474.84
2022-11-25T12:27:36.277Z,101474.00
2022-11-25T12:30:21.269Z,101476.63
2022-11-25T12:33:18.132Z,101470.56
2022-11-25T12:36:06.659Z,101480.13
2022-11-25T12:38:46.568Z,101488.84
2022-11-25T12:41:42.516Z,101492.25
2022-11-25T12:44:20.112Z,101504.44
2022-11-25T12:46:50.375Z,101496.63
2022-11-25T12:49:23.905Z,101500.97
2022-11-25T12:52:17.963Z,101493.22
2022-11-25T12:55:18.152Z,101493.13
2022-11-25T12:58:24.246Z,101490.38
2022-11-25T13:01:39.061Z,101490.22
2022-11-25T13:04:44.683Z,101488.38
2022-11-25T13:07:56.584Z,101481.34
2022-11-25T13:10:59.375Z,101476.97
2022-11-25T13:14:25.377Z,101481.28
2022-11-25T13:16:54.862Z,101477.78
2022-11-25T13:19:22.712Z,101480.44
2022-11-25T13:22:06.429Z,101471.72
2022-11-25T13:24:39.390Z,101482.09
2022-11-25T13:27:40.207Z,101482.06
2022-11-25T13:30:32.786Z,101491.56
2022-11-25T13:33:11.877Z,101492.38
2022-11-25T13:35:54.715Z,101497.56
2022-11-25T13:38:30.472Z,101504.44
2022-11-25T13:41:01.179Z,101512.25
2022-11-25T13:43:28.352Z,101513.97
2022-11-25T13:45:56.338Z,101522.66
2022-11-25T13:48:32.463Z,101525.16
2022-11-25T13:51:26.959Z,101524.19
2022-11-25T13:54:04.900Z,101517.00
2022-11-25T13:56:37.710Z,101527.38
2022-11-25T13:59:10.562Z,101525.56
2022-11-25T14:01:52.979Z,101529.75
2022-11-25T14:04:41.024Z,101528.75
2022-11-25T14:07:33.959Z,101531.25
2022-11-25T14:10:13.373Z,101528.53
2022-11-25T14:13:22.103Z,101535.34
2022-11-25T14:16:16.566Z,101539.56
2022-11-25T14:19:52.466Z,101542.16
2022-11-25T14:23:02.788Z,101539.50
2022-11-25T14:25:44.356Z,101542.94
2022-11-25T14:28:56.902Z,101529.84
2022-11-25T14:31:45.476Z,101542.03
2022-11-25T14:34:27.271Z,101536.84
2022-11-25T14:37:12.510Z,101542.78
2022-11-25T14:40:10.253Z,101543.63
2022-11-25T14:42:42.288Z,101551.38
2022-11-25T14:45:29.717Z,101556.56
2022-11-25T14:47:57.144Z,101559.84
2022-11-25T14:50:34.719Z,101565.97
2022-11-25T14:53:11.301Z,101555.47
2022-11-25T14:55:38.419Z,101562.50
2022-11-25T14:58:05.276Z,101558.16
2022-11-25T15:00:32.176Z,101556.31
2022-11-25T15:03:07.268Z,101558.78
2022-11-25T15:05:37.489Z,101557.13
2022-11-25T15:08:14.737Z,101553.53
2022-11-25T15:10:55.091Z,101562.19
2022-11-25T15:13:46.762Z,101563.84
2022-11-25T15:16:23.208Z,101564.59
2022-11-25T15:18:55.658Z,101564.50
2022-11-25T15:21:33.085Z,101576.69
2022-11-25T15:24:00.739Z,101576.69
2022-11-25T15:26:31.727Z,101578.44
2022-11-25T15:29:11.333Z,101584.56
2022-11-25T15:31:41.485Z,101574.03
2022-11-25T15:34:13.293Z,101582.81
2022-11-25T15:36:41.092Z,101587.09
2022-11-25T15:39:25.877Z,101586.28
2022-11-25T15:41:57.377Z,101597.47
2022-11-25T15:44:48.184Z,101587.91
2022-11-25T15:47:28.400Z,101600.94
2022-11-25T15:50:30.059Z,101604.41
2022-11-25T15:53:00.319Z,101595.75
2022-11-25T15:55:38.437Z,101595.69
2022-11-25T15:58:18.995Z,101600.00
2022-11-25T16:01:07.267Z,101593.00
2022-11-25T16:03:35.441Z,101593.00
2022-11-25T16:06:02.585Z,101593.81
2022-11-25T16:08:37.398Z,101596.41
2022-11-25T16:11:19.245Z,101594.53
2022-11-25T16:13:51.063Z,101589.16
2022-11-25T16:16:25.494Z,101596.16
2022-11-25T16:19:16.866Z,101600.47
2022-11-25T16:21:53.071Z,101600.41
2022-11-25T16:24:49.771Z,101589.63
2022-11-25T16:27:29.927Z,101601.06
2022-11-25T16:30:16.373Z,101597.50
2022-11-25T16:32:43.273Z,101606.16
2022-11-25T16:35:21.733Z,101620.00
2022-11-25T16:37:49.797Z,101614.81
2022-11-25T16:40:18.568Z,101617.41
2022-11-25T16:42:49.936Z,101611.28
2022-11-25T16:45:22.955Z,101609.50
2022-11-25T16:47:50.102Z,101624.28
2022-11-25T16:50:19.458Z,101622.63
2022-11-25T16:52:46.560Z,101616.50
2022-11-25T16:55:14.154Z,101615.75
2022-11-25T16:57:42.752Z,101619.28
2022-11-25T17:00:16.871Z,101622.81
2022-11-25T17:02:44.996Z,101622.88
2022-11-25T17:05:20.036Z,101620.16
2022-11-25T17:07:48.246Z,101634.22
2022-11-25T17:10:15.190Z,101631.63
2022-11-25T17:12:44.155Z,101634.28
2022-11-25T17:15:21.201Z,101633.41
2022-11-25T17:17:49.278Z,101640.34
2022-11-25T17:20:21.619Z,101642.88
2022-11-25T17:22:49.694Z,101642.00
2022-11-25T17:25:16.638Z,101640.06
2022-11-25T17:27:46.083Z,101644.38
2022-11-25T17:30:24.760Z,101643.44
2022-11-25T17:33:04.938Z,101651.16
2022-11-25T17:35:31.822Z,101655.41
2022-11-25T17:38:00.382Z,101655.41
2022-11-25T17:40:27.464Z,101656.22
2022-11-25T17:42:54.386Z,101659.81
2022-11-25T17:45:21.835Z,101665.94
2022-11-25T17:47:49.019Z,101677.31
2022-11-25T17:50:25.559Z,101675.59
2022-11-25T17:52:52.846Z,101675.66
2022-11-25T17:55:21.834Z,101680.13
2022-11-25T17:57:49.715Z,101689.72
2022-11-25T18:00:21.089Z,101681.94
2022-11-25T18:02:48.259Z,101684.72
2022-11-25T18:05:26.771Z,101680.47
2022-11-25T18:07:54.235Z,101691.75
2022-11-25T18:10:25.696Z,101696.22
2022-11-25T18:12:55.454Z,101698.81
2022-11-25T18:15:30.460Z,101695.34
2022-11-25T18:18:19.206Z,101704.94
2022-11-25T18:20:46.098Z,101698.16
2022-11-25T18:23:13.008Z,101699.94
2022-11-25T18:25:40.593Z,101699.16
2022-11-25T18:28:07.769Z,101708.66
2022-11-25T18:30:36.296Z,101706.16
2022-11-25T18:33:06.153Z,101708.81
2022-11-25T18:35:36.471Z,101710.59
2022-11-25T18:38:04.742Z,101709.69
2022-11-25T18:40:32.255Z,101699.94
2022-11-25T18:43:02.621Z,101704.41
2022-11-25T18:45:37.060Z,101700.94
2022-11-25T18:48:17.027Z,101707.00
2022-11-25T18:50:45.470Z,101710.47
2022-11-25T18:53:13.745Z,101711.28
2022-11-25T18:55:40.983Z,101717.34
2022-11-25T18:58:21.766Z,101715.69
2022-11-25T19:00:51.312Z,101712.28
2022-11-25T19:03:22.712Z,101715.88
2022-11-25T19:05:50.236Z,101721.19
2022-11-25T19:08:18.669Z,101722.94
2022-11-25T19:10:47.428Z,101721.28
2022-11-25T19:13:33.489Z,101723.00
2022-11-25T19:16:12.154Z,101729.09
2022-11-25T19:18:39.517Z,101731.75
2022-11-25T19:21:06.503Z,101727.41
2022-11-25T19:23:35.939Z,101728.28
2022-11-25T19:26:12.426Z,101734.25
2022-11-25T19:28:39.397Z,101736.06
2022-11-25T19:31:06.758Z,101734.19
2022-11-25T19:33:37.078Z,101735.94
2022-11-25T19:36:05.647Z,101721.72
2022-11-25T19:38:33.062Z,101746.25
2022-11-25T19:40:59.969Z,101744.47
2022-11-25T19:43:27.076Z,101752.22
2022-11-25T19:45:56.289Z,101758.31
2022-11-25T19:48:26.953Z,101759.16
2022-11-25T19:50:59.465Z,101761.69
2022-11-25T19:53:33.189Z,101767.75
2022-11-25T19:56:04.111Z,101770.34
2022-11-25T19:58:31.567Z,101778.22
2022-11-25T20:01:02.584Z,101779.94
2022-11-25T20:03:31.321Z,101780.81
2022-11-25T20:05:58.550Z,101787.66
2022-11-25T20:08:28.122Z,101793.00
2022-11-25T20:10:56.572Z,101803.41
2022-11-25T20:13:25.935Z,101788.63
2022-11-25T20:15:53.849Z,101803.59
2022-11-25T20:18:23.669Z,101801.03
2022-11-25T20:21:00.384Z,101811.47
2022-11-25T20:23:43.629Z,101808.94
2022-11-25T20:26:27.987Z,101809.81
2022-11-25T20:28:54.874Z,101815.94
2022-11-25T20:31:25.136Z,101816.03
2022-11-25T20:33:54.392Z,101819.56
2022-11-25T20:36:29.331Z,101823.94
2022-11-25T20:38:58.805Z,101827.50
2022-11-25T20:41:28.081Z,101833.63
2022-11-25T20:43:56.735Z,101831.09
2022-11-25T20:46:31.430Z,101834.59
2022-11-25T20:49:06.659Z,101834.69
2022-11-25T20:51:34.032Z,101836.53
2022-11-25T20:54:01.327Z,101841.78
2022-11-25T20:56:29.446Z,101836.66
2022-11-25T20:58:56.960Z,101842.78
2022-11-25T21:01:25.094Z,101848.03
2022-11-25T21:03:52.081Z,101848.06
2022-11-25T21:06:26.625Z,101848.06
2022-11-25T21:08:56.490Z,101847.22
2022-11-25T21:11:23.567Z,101848.09
2022-11-25T21:13:52.010Z,101858.50
2022-11-25T21:16:18.997Z,101850.72
2022-11-25T21:18:45.923Z,101856.72
2022-11-25T21:21:34.878Z,101855.78
2022-11-25T21:24:25.295Z,101862.72
2022-11-25T21:26:52.343Z,101861.84
2022-11-25T21:29:19.598Z,101860.97
2022-11-25T21:31:46.556Z,101862.63
2022-11-25T21:34:14.175Z,101862.56
2022-11-25T21:36:41.990Z,101871.25
2022-11-25T21:39:27.127Z,101867.78
2022-11-25T21:41:55.261Z,101871.19
2022-11-25T21:44:31.497Z,101876.38
2022-11-25T21:46:58.472Z,101875.50
2022-11-25T21:49:26.683Z,101871.16
2022-11-25T21:51:53.599Z,101879.84
2022-11-25T21:54:20.510Z,101875.47
2022-11-25T21:56:47.370Z,101878.97
2022-11-25T21:59:19.602Z,101881.50
2022-11-25T22:01:47.485Z,101885.88
2022-11-25T22:04:16.664Z,101884.97
2022-11-25T22:06:43.927Z,101887.56
2022-11-25T22:09:11.669Z,101892.78
2022-11-25T22:11:50.204Z,101895.34
2022-11-25T22:14:34.442Z,101894.41
2022-11-25T22:17:04.991Z,101896.97
2022-11-25T22:19:32.136Z,101902.13
2022-11-25T22:21:59.063Z,101903.84
2022-11-25T22:24:26.137Z,101910.72
2022-11-25T22:26:57.708Z,101913.25
2022-11-25T22:29:34.175Z,101900.19
2022-11-25T22:32:02.415Z,101900.09
2022-11-25T22:34:29.399Z,101896.50
2022-11-25T22:36:56.323Z,101903.34
2022-11-25T22:39:26.949Z,101896.38
2022-11-25T22:42:06.812Z,101900.69
2022-11-25T22:44:42.851Z,101909.34
2022-11-25T22:47:23.123Z,101914.38
2022-11-25T22:49:50.891Z,101919.66
2022-11-25T22:52:25.619Z,101918.72
2022-11-25T22:54:52.874Z,101914.31
2022-11-25T22:57:20.226Z,101927.22
2022-11-25T22:59:47.098Z,101927.28
2022-11-25T23:02:26.755Z,101921.16
2022-11-25T23:04:55.912Z,101927.22
2022-11-25T23:07:23.895Z,101931.56
2022-11-25T23:09:51.251Z,101930.63
2022-11-25T23:12:18.676Z,101941.09
2022-11-25T23:14:45.690Z,101943.69
2022-11-25T23:17:25.225Z,101946.28
2022-11-25T23:19:53.375Z,101949.81
2022-11-25T23:22:20.617Z,101951.59
2022-11-25T23:24:48.876Z,101951.56
2022-11-25T23:27:16.296Z,101950.81
2022-11-25T23:29:43.228Z,101953.44
2022-11-25T23:32:18.710Z,101959.50
2022-11-25T23:34:46.014Z,101956.09
2022-11-25T23:37:13.920Z,101957.84
2022-11-25T23:39:41.075Z,101953.41
2022-11-25T23:42:19.020Z,101956.09
2022-11-25T23:44:46.182Z,101955.25
2022-11-25T23:47:19.043Z,101961.38
2022-11-25T23:49:48.874Z,101957.03
2022-11-25T23:52:22.262Z,101956.19
2022-11-25T23:54:51.342Z,101958.78
2022-11-25T23:57:21.829Z,101955.34
2022-11-25T23:59:49.743Z,101948.41
